»·PEaware :: N35491 KSNA-KBUR

N35491 :: KSNA-KBUR

FLIGHT INFORMATION

Flight Status: Arrived
Operator: Privately registered:
United States
More flights under this callsign
Pilot: Christopher S. (25427)
Aircraft: CESSNA 172 SKYHAWK
(C172)
More flights by this aircraft type
Origin: KSNA John Wayne-Orange Co
United States
Destination: KBUR Bob Hope-Burbank
United States
More flights between these airports :: More routes between these airports
Route: SLI V23 POPPR SMO125R SMO SMO311R SILEX
File this flight plan on PilotEdge
Remarks:
Altitude:
(Current/Filed)
4,000ft
Speed:
(Current/Filed)
110kts
Departed: 13-Feb-20 04:17 PM
Arrived: 13-Feb-20 04:58 PM
Distance/Time
Traveled:
40nm/0:41
Distance/Time
To Go:
Arrived

Flight Plot

Page will automatically refresh every two minutes.


Map Options




Map Legend


Flown Route
Filed Route
Departure Airport
Arrival Airport
Navaid (VOR, NDB)
Fix

Horizontal Profiles

Position Reports

Time Latitude Longitude Heading Altitude Ground
Speed
13-Feb-20 15:52 33.672386 -117.873096 28 60ft 0kts
13-Feb-20 15:53 33.672386 -117.873096 28 60ft 0kts
13-Feb-20 15:54 33.672386 -117.873096 28 60ft 0kts
13-Feb-20 15:55 33.672386 -117.873096 28 60ft 0kts
13-Feb-20 15:56 33.672386 -117.873096 28 60ft 0kts
13-Feb-20 15:57 33.672386 -117.873096 28 60ft 0kts
13-Feb-20 15:58 33.672386 -117.873096 28 60ft 0kts
13-Feb-20 15:59 33.672386 -117.873096 28 60ft 0kts
13-Feb-20 16:00 33.672386 -117.873096 28 60ft 0kts
13-Feb-20 16:01 33.672386 -117.873096 28 60ft 0kts
13-Feb-20 16:02 33.672386 -117.873096 28 60ft 0kts
13-Feb-20 16:03 33.672386 -117.873096 28 60ft 0kts
13-Feb-20 16:04 33.672386 -117.873096 28 60ft 0kts
13-Feb-20 16:05 33.672386 -117.873096 28 60ft 0kts
13-Feb-20 16:06 33.672386 -117.873096 28 60ft 0kts
13-Feb-20 16:07 33.672386 -117.873096 28 60ft 0kts
13-Feb-20 16:08 33.672386 -117.873096 28 60ft 0kts
13-Feb-20 16:09 33.672386 -117.873096 28 60ft 0kts
13-Feb-20 16:10 33.672386 -117.873096 28 60ft 0kts
13-Feb-20 16:11 33.672386 -117.873096 28 60ft 0kts
13-Feb-20 16:12 33.674023 -117.871368 27 60ft 22kts
13-Feb-20 16:13 33.679895 -117.867829 22 60ft 20kts
13-Feb-20 16:14 33.681228 -117.866511 107 60ft 0kts
13-Feb-20 16:15 33.681228 -117.866511 107 60ft 0kts
13-Feb-20 16:16 33.675645 -117.868803 207 134ft 75kts
13-Feb-20 16:17 33.662497 -117.886305 245 1101ft 76kts
13-Feb-20 16:18 33.651866 -117.907815 238 1983ft 80kts
13-Feb-20 16:19 33.640249 -117.933192 236 2485ft 81kts
13-Feb-20 16:20 33.649714 -117.954076 329 3269ft 93kts
13-Feb-20 16:21 33.671625 -117.969782 325 4051ft 93kts
13-Feb-20 16:22 33.698197 -117.987364 326 3986ft 115kts
13-Feb-20 16:23 33.726282 -118.008249 325 3945ft 117kts
13-Feb-20 16:24 33.754738 -118.029734 329 3928ft 125kts
13-Feb-20 16:25 33.782160 -118.053555 295 4048ft 120kts
13-Feb-20 16:26 33.793198 -118.092245 279 4038ft 124kts
13-Feb-20 16:27 33.802926 -118.132071 284 4024ft 124kts
13-Feb-20 16:28 33.814615 -118.171527 285 4005ft 122kts
13-Feb-20 16:29 33.825371 -118.210554 279 3961ft 123kts
13-Feb-20 16:30 33.835329 -118.249248 285 4055ft 119kts
13-Feb-20 16:31 33.848693 -118.286140 324 4001ft 130kts
13-Feb-20 16:32 33.875750 -118.312856 321 4050ft 127kts
13-Feb-20 16:33 33.905749 -118.335929 326 4010ft 129kts
13-Feb-20 16:34 33.932666 -118.363781 310 3996ft 125kts
13-Feb-20 16:35 33.955884 -118.394935 308 4000ft 126kts
13-Feb-20 16:36 33.980143 -118.425346 318 4004ft 127kts
13-Feb-20 16:37 34.007649 -118.452419 323 4007ft 128kts
13-Feb-20 16:38 34.037620 -118.475720 320 4012ft 128kts
13-Feb-20 16:39 34.065808 -118.502106 320 4017ft 127kts
13-Feb-20 16:40 34.090240 -118.532561 308 4021ft 125kts
13-Feb-20 16:41 34.112830 -118.564477 308 4019ft 124kts
13-Feb-20 16:42 34.134916 -118.596004 304 4010ft 126kts
13-Feb-20 16:43 34.152127 -118.631680 299 3975ft 124kts
13-Feb-20 16:44 34.167689 -118.666339 292 4028ft 116kts
13-Feb-20 16:45 34.183643 -118.699885 320 4020ft 121kts
13-Feb-20 16:46 34.202132 -118.676704 105 3919ft 120kts
13-Feb-20 16:47 34.199690 -118.637554 86 4016ft 113kts
13-Feb-20 16:48 34.199717 -118.598438 89 4004ft 116kts
13-Feb-20 16:49 34.199551 -118.559773 88 3810ft 108kts
13-Feb-20 16:51 34.199407 -118.525877 89 3429ft 86kts
13-Feb-20 16:52 34.198903 -118.497970 89 3032ft 90kts
13-Feb-20 16:53 34.198690 -118.465905 90 2484ft 98kts
13-Feb-20 16:54 34.198752 -118.438391 90 1908ft 75kts
13-Feb-20 16:55 34.198419 -118.411410 90 1447ft 74kts
13-Feb-20 16:56 34.198039 -118.386925 92 1067ft 73kts
13-Feb-20 16:57 34.197842 -118.363635 89 720ft 42kts
13-Feb-20 16:58 34.196952 -118.360256 175 713ft 0kts

Navigation Log

Ident Type
Flight plan parsing failed, navigation log unavailable